NY Terminal Aviation Weather Discussion (AFD) - Prepared: 142 AM EDT TUE SEP 2 2014
MVFR/IFR STRATUS/FOG LIKELY ALONG EASTERN TERMINALS...POSSIBLE
ACROSS INTERIOR TERMINALS.

ANY STRATUS/FOG SHOULD BURNS OFF IN THE MORNING...WITH VFR CONDS
IN AFTN. 

LIGHT AND VRB WINDS THE REMAINDER OF THE NIGHT THRU THE COMING 
MORNING...GIVING WAY TO AFTN SEABREEZE DEVELOPMENT ALONG THE
COAST.

INCREASING CHANCE FOR SCT SHRA/TSRA THE COMING EVENING ACROSS NYC
TERMINALS AND TO THE W & NW WITH APPROACHING COLD FRONT. WILL
MAINTAIN PROB30 NOW...GENERALLY THINKING BETWEEN 02-08Z. 

5 Day General Aviation Outlook:

.OUTLOOK FOR 06Z WED THROUGH FRI...
.TUE NIGHT...MAINLY VFR. WINDS SHIFTING SW TO NW BEHIND FRONT
BETWEEN 06-12Z. 
.WED-FRI NIGHT...VFR CONDITIONS ARE EXPECTED.
.SAT...SUB VFR POSSIBLE IN SCATTERED SHRA/TSRA.


NY Metro Terminal Aviation Weather Summary: (Explanation of Color Coding)
NOTE: All Wind Directions are TRUE (add 13 degrees for magnetic directions). Tail and Crosswind Calculations do account for the magnetic deviation of runways.

Click on the Airport Below for Specific Information at that Terminal

TAF Overview JFK TAF LGA TAF EWR TAF TEB TAF HPN TAF ISP TAF

Jump to AirSpace Impacts Section Condensed "lite" version of SPA page
**************************************************************************************
KJFK Terminal Weather: (Wind Directions Are True, Except Where Noted, ADD 13 degrees for Magnetic)

5MIN KJFK 020710Z 18005KT 10SM CLR 24/22 A2993 10 90 
     1100 200/05 RMK AO2 $
5MIN KJFK 020705Z 18005KT 10SM CLR 24/22 A2993 10 87 
     1100 190/05 RMK AO2 $
********************************************
****        MAGNETIC DIRECTIONS         ****
********************************************
KJFK 09/02/2014 07:19:26 GMT 200 05 KT
KJFK 09/02/2014 07:17:26 GMT 200 05 KT
KJFK 09/02/2014 07:15:26 GMT 190 05 KT
KJFK 09/02/2014 07:13:26 GMT 180 05 KT
KJFK 09/02/2014 07:11:26 GMT 180 05 KT
KJFK 09/02/2014 07:09:26 GMT 170 06 KT
KJFK 09/02/2014 07:07:26 GMT 170 06 KT
KJFK 09/02/2014 07:05:25 GMT 170 05 KT
KJFK 09/02/2014 07:03:25 GMT 170 04 KT
KJFK 09/02/2014 07:01:25 GMT 170 04 KT
SAUS70 KJFK 020700 RRQ
METAR KJFK 020651Z 18003KT 10SM FEW080 24/23 A2993 RMK AO2 SLP134
     T02440228 $
FTNA35 KJFK 020545 RRF
KJFK 020536Z 0206/0312 24005KT P6SM SCT070 SCT120
     TEMPO 0210/0213 6SM BR SCT020
     FM021300 23007KT P6SM FEW020 SCT060
     FM021600 21010KT P6SM SCT050
     FM021900 18015KT P6SM SCT050
     FM030100 23009KT P6SM SCT050 BKN150
     PROB30 0303/0308 SHRA BKN050
     FM030800 28007KT P6SM SCT150
KJFK Forecaster Comments Not Available at This Time
jfk

JFK Hourly Forecast Temperature (C)

JFK Hourly TMPS
**************************************************************************************
KLGA Terminal Weather: (Wind Directions Are True, Except Where Noted, ADD 13 degrees for Magnetic)

5MIN KLGA 020710Z 23007KT 10SM CLR 26/23 A2992 30 81 
     1400 240/07 RMK AO2 $
5MIN KLGA 020705Z 22005KT 10SM CLR 26/23 A2992 30 81 
     1400 240/05 RMK AO2 $
********************************************
****        MAGNETIC DIRECTIONS         ****
********************************************
KLGA 09/02/2014 07:19:58 GMT 240 08 KT
KLGA 09/02/2014 07:17:59 GMT 240 08 KT
KLGA 09/02/2014 07:15:59 GMT 240 08 KT
KLGA 09/02/2014 07:13:58 GMT 250 08 KT
KLGA 09/02/2014 07:11:58 GMT 250 08 KT
KLGA 09/02/2014 07:09:58 GMT 250 08 KT
KLGA 09/02/2014 07:07:58 GMT 250 08 KT
KLGA 09/02/2014 07:05:59 GMT 250 08 KT
KLGA 09/02/2014 07:03:58 GMT 250 07 KT
KLGA 09/02/2014 07:01:58 GMT 240 06 KT
SAUS70 KLGA 020700
METAR KLGA 020651Z 20005KT 10SM CLR 27/23 A2991 RMK AO2 SLP128 T02670228
     $
FTUS80 KLGA 020539 RRB
KLGA 020536Z 0206/0306 22005KT P6SM SCT050 SCT150
      TEMPO 0210/0212 6SM BR SCT020
     FM021400 24008KT P6SM SCT060
     FM021900 20012G18KT P6SM SCT050
     FM030100 22009KT P6SM SCT050 BKN150 PROB30 0302/0306 SHRA
      BKN050
KLGA Forecaster Comments Not Available at This Time
lga


**************************************************************************************

KEWR Terminal Weather: (Wind Directions Are True, Except Where Noted, ADD 13 degrees for Magnetic)

5MIN KEWR 020710Z 21005KT 10SM CLR 25/23 A2992 20 87 
     1200 230/05 RMK AO2 $
5MIN KEWR 020705Z 23007KT 10SM CLR 26/23 A2992 20 87 
     1300 240/07 RMK AO2 $
********************************************
****        MAGNETIC DIRECTIONS         ****
********************************************
KEWR 09/02/2014 07:19:02 GMT 250 05 KT
KEWR 09/02/2014 07:17:02 GMT 260 06 KT
KEWR 09/02/2014 07:15:23 GMT 260 05 KT
KEWR 09/02/2014 07:13:02 GMT 240 04 KT
KEWR 09/02/2014 07:11:02 GMT 250 05 KT
KEWR 09/02/2014 07:09:23 GMT 250 05 KT
KEWR 09/02/2014 07:07:02 GMT 260 04 KT
KEWR 09/02/2014 07:05:02 GMT 260 05 KT
KEWR 09/02/2014 07:03:23 GMT 270 05 KT
KEWR 09/02/2014 07:01:02 GMT 260 06 KT
SAUS70 KEWR 020700
METAR KEWR 020651Z 24007KT 10SM CLR 26/23 A2992 RMK AO2 SLP131 T02560233
     $
FTUS80 KEWR 020539 RRA
KEWR 020536Z 0206/0312 21005KT P6SM SCT070
     FM020800 23004KT P6SM SCT050 SCT150
      TEMPO 0209/0212 6SM BR SCT020
     FM021400 25007KT P6SM SCT060
     FM021800 23011G17KT P6SM SCT050
     FM030000 25007KT P6SM SCT050 BKN150 PROB30 0302/0307 SHRA
      BKN050
     FM030900 31006KT P6SM SCT150
KEWR Forecaster Comments Not Available at This Time
ewr
Afternoon EWR Haze Potential Forecast: KEWR Haze Forecast Not Available at This Time
IS NOT AVAILABLE AT THIS TIME


******************************************************************************

KTEB Terminal Weather:
SAUS80 KTEB 020700
METAR KTEB 020651Z 23003KT 10SM CLR 25/22 A2991 RMK AO2 SLP128
     T02500222
FTUS80 KTEB 020539 RRC
KTEB 020536Z 0206/0306 VRB04KT P6SM FEW025 SCT050
     FM020800 VRB03KT 6SM BR FEW020 SCT050 SCT150
      TEMPO 0209/0212 5SM BR SCT020
     FM021400 24005KT P6SM FEW020 SCT050
     FM021800 21010KT P6SM SCT050
     FM030000 25006KT P6SM SCT050 BKN150 PROB30 0302/0306 SHRA
      BKN050
KTEB Forecaster Comments Not Available at This Time
teb

 


**************************************************************************************

KHPN Terminal Weather:
SAUS70 KHPN 020700 RRE
METAR KHPN 020656Z 00000KT 9SM MIFG CLR 22/21 A2992 RMK AO2 SLP125 P0001
     T02170211
FTUS80 KHPN 020539 RRA
KHPN 020536Z 0206/0306 VRB03KT 4SM BR SCT020 SCT040 BKN150
      TEMPO 0209/0213 2SM BR BKN015
     FM021400 23005KT 6SM HZ FEW020 SCT050
     FM021900 19007KT P6SM SCT050
     FM030000 VRB04KT P6SM SCT050 BKN150 PROB30 0303/0306 SHRA
      BKN050 AMD NOT SKED
KHPN Forecaster Comments Not Available at This Time
HPN


******************************************************************************

KISP Terminal Weather:
SAUS70 KISP 020700 RRE
METAR KISP 020656Z AUTO 19005KT 10SM CLR 24/22 A2991 RMK AO2 SLP126
     T02390222
FTUS80 KISP 020539 RRA
KISP 020536Z 0206/0306 VRB05KT 5SM BR SCT008 SCT080
      TEMPO 0209/0213 3SM BR BKN008
     FM021400 23007KT P6SM FEW020 SCT040
     FM021800 19010G16KT P6SM SCT050
KISP Forecaster Comments Not Available at This Time
ISP

 


ZNY SWAP Season Information

(ZNY SWAP STATEMENT) (Click for PDF File) (ZNY BRIEFING) (Click for PDF File)

*******************************************************
***        NY AIR ROUTE TRAFFIC CONTROL CENTER      ***
***                DAILY SWAP STATEMENT             ***
*******************************************************
NY AIR ROUTE TRAFFIC CONTROL CENTER
DAILY SWAP STATEMENT
MONDAY, SEPTEMBER 1, 2014

SWAP IS EXPECTED AFTER 18Z.
SCT TS WL FORM ACROSS SE PORTIONS OF ZNY AND NORTHERN PORTIONS 
OF ZDC...WITH HIGHEST IMPACTS FROM RBV-PHL-OOD-DC METRO CORRIDOR. 
OTHER ISOLD TS MAY FORM WITHIN N90 AIRSPACE INCLDG OVER NYC ARPTS 
AND N GATES. WELL W OF ZNY...PSBL BKN TS LINE MAY FORM DTW TO E OF 
CHICAGO WITH REROUTES PSBL.

ADDT'L INFO:
AZEZU-PAEPR-HANRI(L453-M201):  ISOLD TS PSBL VCTY AZEZU TIL 18Z.
DITCH:  SCT TS EXPECTED.
EAST GATES:  SLGT CHANCE OF IMPACTS BUT TS WILL BE ISOLD. 
TOMORROW MORNINGS SWAP OUTLOOK:   SWAP IS POSSIBLE W OF ZNY.
$$
GS



N90 AirSpace Impacts

N90 ZNY Gate TSTM Forecast    SWAP Day One Forecast

SWAP Day One Forecast    SWAP Day Two Outlook

National Collaborative Convective Forecast Product (CCFP) Forecasts (Mar-Oct)


Vertical Wind Profile
Untitled Document